sensor_id;sensor_type;location;lat;lon;timestamp;pressure;altitude;pressure_sealevel;temperature;humidity
38900;BME280;24660;43.238;26.576;2022-07-10T00:02:08;98936.03;;;19.40;92.19
38900;BME280;24660;43.238;26.576;2022-07-10T00:04:33;98932.28;;;19.19;92.40
38900;BME280;24660;43.238;26.576;2022-07-10T00:06:59;98938.34;;;19.21;92.87
38900;BME280;24660;43.238;26.576;2022-07-10T00:09:26;98942.72;;;19.22;92.66
38900;BME280;24660;43.238;26.576;2022-07-10T00:11:53;98934.22;;;19.25;92.92
38900;BME280;24660;43.238;26.576;2022-07-10T00:14:18;98940.69;;;18.88;94.82
38900;BME280;24660;43.238;26.576;2022-07-10T00:16:45;98936.72;;;19.06;94.38
38900;BME280;24660;43.238;26.576;2022-07-10T00:19:10;98941.88;;;19.01;94.54
38900;BME280;24660;43.238;26.576;2022-07-10T00:21:35;98945.13;;;18.96;95.06
38900;BME280;24660;43.238;26.576;2022-07-10T00:24:01;98942.53;;;19.24;93.27
38900;BME280;24660;43.238;26.576;2022-07-10T00:26:27;98934.88;;;18.91;94.11
38900;BME280;24660;43.238;26.576;2022-07-10T00:28:52;98924.94;;;18.98;94.65
38900;BME280;24660;43.238;26.576;2022-07-10T00:31:17;98920.31;;;19.14;94.13
38900;BME280;24660;43.238;26.576;2022-07-10T00:33:42;98929.88;;;18.74;96.15
38900;BME280;24660;43.238;26.576;2022-07-10T00:36:08;98926.41;;;18.80;96.97
38900;BME280;24660;43.238;26.576;2022-07-10T00:38:34;98922.13;;;19.07;94.68
38900;BME280;24660;43.238;26.576;2022-07-10T00:40:59;98929.00;;;18.88;95.71
38900;BME280;24660;43.238;26.576;2022-07-10T00:43:24;98928.34;;;19.01;95.46
38900;BME280;24660;43.238;26.576;2022-07-10T00:45:49;98915.72;;;19.29;93.04
38900;BME280;24660;43.238;26.576;2022-07-10T00:48:15;98918.81;;;18.90;94.47
38900;BME280;24660;43.238;26.576;2022-07-10T00:50:41;98913.50;;;18.82;96.56
38900;BME280;24660;43.238;26.576;2022-07-10T00:53:07;98905.94;;;19.13;94.27
38900;BME280;24660;43.238;26.576;2022-07-10T00:55:34;98913.69;;;18.80;95.37
38900;BME280;24660;43.238;26.576;2022-07-10T00:58:00;98911.25;;;18.85;95.93
38900;BME280;24660;43.238;26.576;2022-07-10T01:00:27;98909.50;;;18.78;96.25
38900;BME280;24660;43.238;26.576;2022-07-10T01:02:53;98909.03;;;18.89;96.08
38900;BME280;24660;43.238;26.576;2022-07-10T01:05:18;98912.09;;;18.56;98.40
38900;BME280;24660;43.238;26.576;2022-07-10T01:07:44;98908.19;;;18.29;100.00
38900;BME280;24660;43.238;26.576;2022-07-10T01:10:10;98900.72;;;18.61;99.45
38900;BME280;24660;43.238;26.576;2022-07-10T01:12:35;98909.97;;;18.07;100.00
38900;BME280;24660;43.238;26.576;2022-07-10T01:15:01;98913.97;;;18.26;100.00
38900;BME280;24660;43.238;26.576;2022-07-10T01:17:26;98914.34;;;18.53;100.00
38900;BME280;24660;43.238;26.576;2022-07-10T01:19:54;98915.75;;;18.04;100.00
38900;BME280;24660;43.238;26.576;2022-07-10T01:22:19;98903.25;;;18.03;100.00
38900;BME280;24660;43.238;26.576;2022-07-10T01:24:44;98900.44;;;18.41;100.00
38900;BME280;24660;43.238;26.576;2022-07-10T01:27:10;98890.81;;;18.53;100.00
38900;BME280;24660;43.238;26.576;2022-07-10T01:29:35;98892.63;;;18.31;100.00
38900;BME280;24660;43.238;26.576;2022-07-10T01:32:01;98889.72;;;18.48;100.00
38900;BME280;24660;43.238;26.576;2022-07-10T01:34:26;98888.25;;;18.45;100.00
38900;BME280;24660;43.238;26.576;2022-07-10T01:36:52;98887.41;;;18.45;100.00
38900;BME280;24660;43.238;26.576;2022-07-10T01:39:17;98881.13;;;18.29;100.00
38900;BME280;24660;43.238;26.576;2022-07-10T01:41:43;98881.69;;;18.10;100.00
38900;BME280;24660;43.238;26.576;2022-07-10T01:44:08;98885.03;;;17.97;100.00
38900;BME280;24660;43.238;26.576;2022-07-10T01:46:34;98884.72;;;18.30;100.00
38900;BME280;24660;43.238;26.576;2022-07-10T01:48:59;98884.84;;;17.99;100.00
38900;BME280;24660;43.238;26.576;2022-07-10T01:51:24;98886.38;;;18.16;100.00
38900;BME280;24660;43.238;26.576;2022-07-10T01:53:49;98889.63;;;18.12;100.00
38900;BME280;24660;43.238;26.576;2022-07-10T01:56:15;98880.00;;;17.94;100.00
38900;BME280;24660;43.238;26.576;2022-07-10T01:58:41;98884.78;;;17.92;100.00
38900;BME280;24660;43.238;26.576;2022-07-10T02:01:06;98882.63;;;17.88;100.00
38900;BME280;24660;43.238;26.576;2022-07-10T02:03:32;98892.28;;;17.82;100.00
38900;BME280;24660;43.238;26.576;2022-07-10T02:06:12;98884.09;;;17.75;100.00
38900;BME280;24660;43.238;26.576;2022-07-10T02:08:38;98883.94;;;17.92;100.00
38900;BME280;24660;43.238;26.576;2022-07-10T02:11:03;98881.63;;;18.03;100.00
38900;BME280;24660;43.238;26.576;2022-07-10T02:13:28;98889.53;;;17.67;100.00
38900;BME280;24660;43.238;26.576;2022-07-10T02:15:54;98891.41;;;17.67;100.00
38900;BME280;24660;43.238;26.576;2022-07-10T02:18:19;98890.88;;;17.71;100.00
38900;BME280;24660;43.238;26.576;2022-07-10T02:20:45;98892.63;;;18.02;100.00
38900;BME280;24660;43.238;26.576;2022-07-10T02:23:10;98899.19;;;17.85;100.00
38900;BME280;24660;43.238;26.576;2022-07-10T02:25:35;98899.03;;;18.01;100.00
38900;BME280;24660;43.238;26.576;2022-07-10T02:28:01;98892.47;;;17.80;100.00
38900;BME280;24660;43.238;26.576;2022-07-10T02:30:26;98907.31;;;17.85;100.00
38900;BME280;24660;43.238;26.576;2022-07-10T02:32:51;98903.47;;;17.79;100.00
38900;BME280;24660;43.238;26.576;2022-07-10T02:35:17;98910.97;;;17.92;100.00
38900;BME280;24660;43.238;26.576;2022-07-10T02:37:42;98901.84;;;17.93;100.00
38900;BME280;24660;43.238;26.576;2022-07-10T02:40:08;98897.84;;;18.03;100.00
38900;BME280;24660;43.238;26.576;2022-07-10T02:42:33;98892.63;;;18.02;100.00
38900;BME280;24660;43.238;26.576;2022-07-10T02:44:58;98896.31;;;18.01;100.00
38900;BME280;24660;43.238;26.576;2022-07-10T02:47:24;98901.84;;;18.22;100.00
38900;BME280;24660;43.238;26.576;2022-07-10T02:49:49;98893.34;;;18.55;100.00
38900;BME280;24660;43.238;26.576;2022-07-10T02:52:14;98904.47;;;18.30;100.00
38900;BME280;24660;43.238;26.576;2022-07-10T02:54:40;98890.94;;;18.45;100.00
38900;BME280;24660;43.238;26.576;2022-07-10T02:57:05;98891.72;;;17.87;100.00
38900;BME280;24660;43.238;26.576;2022-07-10T02:59:31;98890.44;;;17.97;100.00
38900;BME280;24660;43.238;26.576;2022-07-10T03:01:56;98898.03;;;18.17;100.00
38900;BME280;24660;43.238;26.576;2022-07-10T03:04:21;98888.56;;;17.83;100.00
38900;BME280;24660;43.238;26.576;2022-07-10T03:06:46;98888.97;;;17.95;100.00
38900;BME280;24660;43.238;26.576;2022-07-10T03:09:12;98896.63;;;18.06;100.00
38900;BME280;24660;43.238;26.576;2022-07-10T03:11:37;98897.94;;;18.25;100.00
38900;BME280;24660;43.238;26.576;2022-07-10T03:14:02;98888.78;;;18.11;100.00
38900;BME280;24660;43.238;26.576;2022-07-10T03:16:28;98894.13;;;18.04;100.00
38900;BME280;24660;43.238;26.576;2022-07-10T03:18:53;98888.78;;;18.11;100.00
38900;BME280;24660;43.238;26.576;2022-07-10T03:21:18;98895.31;;;18.02;100.00
38900;BME280;24660;43.238;26.576;2022-07-10T03:23:43;98896.53;;;18.29;100.00
38900;BME280;24660;43.238;26.576;2022-07-10T03:26:09;98891.22;;;18.50;100.00
38900;BME280;24660;43.238;26.576;2022-07-10T03:28:34;98898.56;;;18.12;100.00
38900;BME280;24660;43.238;26.576;2022-07-10T03:31:00;98891.59;;;18.32;100.00
38900;BME280;24660;43.238;26.576;2022-07-10T03:33:26;98896.72;;;18.27;100.00
38900;BME280;24660;43.238;26.576;2022-07-10T03:35:51;98903.81;;;18.43;100.00
38900;BME280;24660;43.238;26.576;2022-07-10T03:38:16;98897.81;;;18.62;100.00
38900;BME280;24660;43.238;26.576;2022-07-10T03:40:42;98898.03;;;18.61;99.73
38900;BME280;24660;43.238;26.576;2022-07-10T03:43:07;98892.50;;;18.69;99.49
38900;BME280;24660;43.238;26.576;2022-07-10T03:45:32;98900.16;;;18.51;100.00
38900;BME280;24660;43.238;26.576;2022-07-10T03:47:58;98893.16;;;18.42;100.00
38900;BME280;24660;43.238;26.576;2022-07-10T03:50:23;98895.56;;;18.81;100.00
38900;BME280;24660;43.238;26.576;2022-07-10T03:52:48;98904.28;;;18.76;99.17
38900;BME280;24660;43.238;26.576;2022-07-10T03:55:13;98896.16;;;18.61;99.82
38900;BME280;24660;43.238;26.576;2022-07-10T03:57:39;98895.84;;;18.86;98.62
38900;BME280;24660;43.238;26.576;2022-07-10T04:00:23;98895.47;;;18.89;98.39
38900;BME280;24660;43.238;26.576;2022-07-10T04:05:30;98903.34;;;18.69;97.73
38900;BME280;24660;43.238;26.576;2022-07-10T04:07:55;98904.44;;;18.89;98.42
38900;BME280;24660;43.238;26.576;2022-07-10T04:10:23;98906.97;;;19.12;97.93
38900;BME280;24660;43.238;26.576;2022-07-10T04:12:48;98903.94;;;19.01;98.15
38900;BME280;24660;43.238;26.576;2022-07-10T04:15:14;98905.53;;;18.95;97.34
38900;BME280;24660;43.238;26.576;2022-07-10T04:17:39;98909.56;;;18.84;98.50
38900;BME280;24660;43.238;26.576;2022-07-10T04:20:04;98902.00;;;18.94;96.13
38900;BME280;24660;43.238;26.576;2022-07-10T04:22:30;98903.66;;;18.95;96.72
38900;BME280;24660;43.238;26.576;2022-07-10T04:24:55;98900.81;;;18.82;97.61
38900;BME280;24660;43.238;26.576;2022-07-10T04:27:21;98899.44;;;19.08;96.47
38900;BME280;24660;43.238;26.576;2022-07-10T04:29:46;98897.66;;;19.36;94.59
38900;BME280;24660;43.238;26.576;2022-07-10T04:32:11;98896.34;;;19.11;93.88
38900;BME280;24660;43.238;26.576;2022-07-10T04:34:37;98891.88;;;19.61;91.73
38900;BME280;24660;43.238;26.576;2022-07-10T04:37:02;98900.25;;;19.94;89.39
38900;BME280;24660;43.238;26.576;2022-07-10T04:39:28;98906.00;;;20.12;85.59
38900;BME280;24660;43.238;26.576;2022-07-10T04:41:53;98902.63;;;20.38;82.93
38900;BME280;24660;43.238;26.576;2022-07-10T04:44:22;98894.66;;;20.64;79.25
38900;BME280;24660;43.238;26.576;2022-07-10T04:46:47;98898.63;;;20.68;77.95
38900;BME280;24660;43.238;26.576;2022-07-10T04:49:13;98896.59;;;20.77;78.18
38900;BME280;24660;43.238;26.576;2022-07-10T04:51:38;98901.53;;;21.21;74.48
38900;BME280;24660;43.238;26.576;2022-07-10T04:54:03;98897.41;;;21.25;74.69
38900;BME280;24660;43.238;26.576;2022-07-10T04:56:29;98895.69;;;21.18;74.20
38900;BME280;24660;43.238;26.576;2022-07-10T04:58:54;98901.75;;;21.13;73.98
38900;BME280;24660;43.238;26.576;2022-07-10T05:01:19;98903.59;;;21.06;74.83
38900;BME280;24660;43.238;26.576;2022-07-10T05:03:45;98906.88;;;21.43;72.36
38900;BME280;24660;43.238;26.576;2022-07-10T05:06:10;98903.06;;;21.37;72.89
38900;BME280;24660;43.238;26.576;2022-07-10T05:08:36;98905.81;;;21.44;71.57
38900;BME280;24660;43.238;26.576;2022-07-10T05:11:01;98901.22;;;21.57;70.75
38900;BME280;24660;43.238;26.576;2022-07-10T05:13:29;98901.00;;;21.66;70.44
38900;BME280;24660;43.238;26.576;2022-07-10T05:15:55;98900.38;;;21.63;71.17
38900;BME280;24660;43.238;26.576;2022-07-10T05:18:20;98904.16;;;21.89;71.16
38900;BME280;24660;43.238;26.576;2022-07-10T05:20:46;98909.81;;;22.07;70.39
38900;BME280;24660;43.238;26.576;2022-07-10T05:23:13;98908.53;;;22.03;69.71
38900;BME280;24660;43.238;26.576;2022-07-10T05:25:38;98905.84;;;21.97;69.57
38900;BME280;24660;43.238;26.576;2022-07-10T05:28:04;98897.47;;;21.78;69.16
38900;BME280;24660;43.238;26.576;2022-07-10T05:30:29;98903.53;;;22.00;70.42
38900;BME280;24660;43.238;26.576;2022-07-10T05:32:55;98906.47;;;22.18;68.66
38900;BME280;24660;43.238;26.576;2022-07-10T05:35:20;98898.69;;;22.22;68.95
38900;BME280;24660;43.238;26.576;2022-07-10T05:37:45;98905.75;;;22.49;68.03
38900;BME280;24660;43.238;26.576;2022-07-10T05:40:11;98903.44;;;22.66;67.19
38900;BME280;24660;43.238;26.576;2022-07-10T05:42:37;98905.25;;;22.79;67.01
38900;BME280;24660;43.238;26.576;2022-07-10T05:45:02;98904.81;;;22.89;66.84
38900;BME280;24660;43.238;26.576;2022-07-10T05:47:27;98908.63;;;22.74;66.38
38900;BME280;24660;43.238;26.576;2022-07-10T05:49:55;98912.25;;;23.13;64.98
38900;BME280;24660;43.238;26.576;2022-07-10T05:52:21;98910.13;;;22.64;64.07
38900;BME280;24660;43.238;26.576;2022-07-10T05:54:46;98907.88;;;22.47;64.94
38900;BME280;24660;43.238;26.576;2022-07-10T05:57:11;98904.97;;;22.42;65.18
38900;BME280;24660;43.238;26.576;2022-07-10T05:59:36;98899.59;;;22.87;64.78
38900;BME280;24660;43.238;26.576;2022-07-10T06:02:02;98904.41;;;22.78;63.41
38900;BME280;24660;43.238;26.576;2022-07-10T06:04:27;98902.34;;;23.25;63.26
38900;BME280;24660;43.238;26.576;2022-07-10T06:06:53;98897.88;;;23.37;61.01
38900;BME280;24660;43.238;26.576;2022-07-10T06:09:18;98901.91;;;23.60;60.49
38900;BME280;24660;43.238;26.576;2022-07-10T06:11:43;98902.78;;;23.54;60.98
38900;BME280;24660;43.238;26.576;2022-07-10T06:14:10;98908.19;;;23.67;61.12
38900;BME280;24660;43.238;26.576;2022-07-10T06:16:36;98904.91;;;23.52;61.08
38900;BME280;24660;43.238;26.576;2022-07-10T06:19:01;98895.06;;;23.76;60.38
38900;BME280;24660;43.238;26.576;2022-07-10T06:21:26;98887.44;;;23.28;60.39
38900;BME280;24660;43.238;26.576;2022-07-10T06:23:52;98895.44;;;23.54;60.74
38900;BME280;24660;43.238;26.576;2022-07-10T06:26:17;98896.38;;;23.73;59.24
38900;BME280;24660;43.238;26.576;2022-07-10T06:28:44;98895.19;;;23.62;59.66
38900;BME280;24660;43.238;26.576;2022-07-10T06:31:09;98889.47;;;23.39;61.52
38900;BME280;24660;43.238;26.576;2022-07-10T06:33:35;98894.97;;;23.89;59.82
38900;BME280;24660;43.238;26.576;2022-07-10T06:36:00;98893.16;;;23.83;60.16
38900;BME280;24660;43.238;26.576;2022-07-10T06:38:26;98882.34;;;23.69;60.93
38900;BME280;24660;43.238;26.576;2022-07-10T06:40:51;98894.81;;;23.84;59.15
38900;BME280;24660;43.238;26.576;2022-07-10T06:43:17;98894.97;;;24.14;59.65
38900;BME280;24660;43.238;26.576;2022-07-10T06:45:42;98898.72;;;23.94;58.52
38900;BME280;24660;43.238;26.576;2022-07-10T06:48:07;98899.50;;;24.20;59.60
38900;BME280;24660;43.238;26.576;2022-07-10T06:50:33;98905.81;;;24.20;58.52
38900;BME280;24660;43.238;26.576;2022-07-10T06:53:00;98897.00;;;24.43;58.09
38900;BME280;24660;43.238;26.576;2022-07-10T06:55:26;98898.19;;;24.47;58.33
38900;BME280;24660;43.238;26.576;2022-07-10T06:57:52;98907.38;;;24.90;57.34
38900;BME280;24660;43.238;26.576;2022-07-10T07:00:18;98903.28;;;24.99;56.60
38900;BME280;24660;43.238;26.576;2022-07-10T07:02:43;98901.25;;;24.94;56.64
38900;BME280;24660;43.238;26.576;2022-07-10T07:05:09;98905.66;;;24.40;58.79
38900;BME280;24660;43.238;26.576;2022-07-10T07:07:34;98909.19;;;25.14;56.28
38900;BME280;24660;43.238;26.576;2022-07-10T07:10:00;98910.00;;;24.66;56.02
38900;BME280;24660;43.238;26.576;2022-07-10T07:12:26;98907.34;;;24.78;57.02
38900;BME280;24660;43.238;26.576;2022-07-10T07:14:51;98898.44;;;25.31;55.79
38900;BME280;24660;43.238;26.576;2022-07-10T07:17:17;98910.34;;;24.88;55.72
38900;BME280;24660;43.238;26.576;2022-07-10T07:19:57;98907.00;;;25.23;54.58
38900;BME280;24660;43.238;26.576;2022-07-10T07:22:38;98902.38;;;25.05;55.15
38900;BME280;24660;43.238;26.576;2022-07-10T07:25:18;98898.59;;;25.36;54.49
38900;BME280;24660;43.238;26.576;2022-07-10T07:27:44;98901.00;;;25.86;52.57
38900;BME280;24660;43.238;26.576;2022-07-10T07:30:10;98900.50;;;25.47;53.03
38900;BME280;24660;43.238;26.576;2022-07-10T07:32:36;98900.84;;;24.91;54.01
38900;BME280;24660;43.238;26.576;2022-07-10T07:35:02;98901.88;;;25.26;51.93
38900;BME280;24660;43.238;26.576;2022-07-10T07:37:38;98904.19;;;25.71;52.31
38900;BME280;24660;43.238;26.576;2022-07-10T07:40:04;98899.94;;;25.57;51.74
38900;BME280;24660;43.238;26.576;2022-07-10T07:42:30;98894.09;;;25.41;51.93
38900;BME280;24660;43.238;26.576;2022-07-10T07:44:55;98888.13;;;25.44;53.00
38900;BME280;24660;43.238;26.576;2022-07-10T07:47:21;98895.66;;;26.02;51.83
38900;BME280;24660;43.238;26.576;2022-07-10T07:49:46;98899.69;;;25.77;51.52
38900;BME280;24660;43.238;26.576;2022-07-10T07:52:11;98895.66;;;26.14;50.69
38900;BME280;24660;43.238;26.576;2022-07-10T07:54:36;98895.31;;;26.11;51.23
38900;BME280;24660;43.238;26.576;2022-07-10T07:57:02;98892.81;;;25.56;51.28
38900;BME280;24660;43.238;26.576;2022-07-10T07:59:28;98890.75;;;26.16;49.38
38900;BME280;24660;43.238;26.576;2022-07-10T08:01:53;98889.28;;;25.67;50.96
38900;BME280;24660;43.238;26.576;2022-07-10T08:04:18;98890.53;;;25.94;50.94
38900;BME280;24660;43.238;26.576;2022-07-10T08:06:44;98894.47;;;26.22;49.16
38900;BME280;24660;43.238;26.576;2022-07-10T08:09:09;98903.22;;;26.94;47.22
38900;BME280;24660;43.238;26.576;2022-07-10T08:11:34;98906.91;;;26.88;47.59
38900;BME280;24660;43.238;26.576;2022-07-10T08:14:00;98909.31;;;26.84;47.03
38900;BME280;24660;43.238;26.576;2022-07-10T08:16:25;98906.91;;;27.28;46.87
38900;BME280;24660;43.238;26.576;2022-07-10T08:18:50;98902.19;;;26.72;47.76
38900;BME280;24660;43.238;26.576;2022-07-10T08:21:16;98904.97;;;27.40;47.00
38900;BME280;24660;43.238;26.576;2022-07-10T08:23:41;98894.16;;;26.93;47.34
38900;BME280;24660;43.238;26.576;2022-07-10T08:26:06;98902.09;;;26.20;49.45
38900;BME280;24660;43.238;26.576;2022-07-10T08:28:32;98898.97;;;25.81;50.09
38900;BME280;24660;43.238;26.576;2022-07-10T08:30:57;98898.88;;;25.58;50.88
38900;BME280;24660;43.238;26.576;2022-07-10T08:33:22;98895.00;;;25.65;51.04
38900;BME280;24660;43.238;26.576;2022-07-10T08:35:48;98894.59;;;26.50;49.99
38900;BME280;24660;43.238;26.576;2022-07-10T08:38:13;98883.75;;;27.36;48.13
38900;BME280;24660;43.238;26.576;2022-07-10T08:40:38;98890.19;;;27.30;47.19
38900;BME280;24660;43.238;26.576;2022-07-10T08:43:04;98890.97;;;27.70;46.41
38900;BME280;24660;43.238;26.576;2022-07-10T08:45:31;98898.81;;;27.05;47.68
38900;BME280;24660;43.238;26.576;2022-07-10T08:48:01;98892.44;;;27.61;45.48
38900;BME280;24660;43.238;26.576;2022-07-10T08:50:27;98883.63;;;27.02;46.80
38900;BME280;24660;43.238;26.576;2022-07-10T08:53:00;98888.66;;;27.05;47.13
38900;BME280;24660;43.238;26.576;2022-07-10T08:55:26;98888.22;;;27.70;46.71
38900;BME280;24660;43.238;26.576;2022-07-10T08:57:52;98892.16;;;28.08;45.92
38900;BME280;24660;43.238;26.576;2022-07-10T09:00:18;98893.84;;;27.18;47.92
38900;BME280;24660;43.238;26.576;2022-07-10T09:02:44;98887.78;;;27.45;46.58
38900;BME280;24660;43.238;26.576;2022-07-10T09:05:09;98890.97;;;27.42;47.88
38900;BME280;24660;43.238;26.576;2022-07-10T09:07:35;98892.44;;;27.61;47.19
38900;BME280;24660;43.238;26.576;2022-07-10T09:10:05;98896.38;;;27.82;46.28
38900;BME280;24660;43.238;26.576;2022-07-10T09:12:30;98890.50;;;27.90;46.85
38900;BME280;24660;43.238;26.576;2022-07-10T09:15:15;98887.13;;;28.38;45.91
38900;BME280;24660;43.238;26.576;2022-07-10T09:17:49;98886.72;;;28.13;44.71
38900;BME280;24660;43.238;26.576;2022-07-10T09:20:23;98877.63;;;27.45;45.83
38900;BME280;24660;43.238;26.576;2022-07-10T09:22:48;98879.38;;;27.51;46.51
38900;BME280;24660;43.238;26.576;2022-07-10T09:25:14;98877.88;;;27.61;46.25
38900;BME280;24660;43.238;26.576;2022-07-10T09:27:50;98877.50;;;26.72;48.47
38900;BME280;24660;43.238;26.576;2022-07-10T09:30:23;98872.19;;;27.05;48.66
38900;BME280;24660;43.238;26.576;2022-07-10T09:33:13;98884.50;;;27.93;47.29
38900;BME280;24660;43.238;26.576;2022-07-10T09:35:53;98878.97;;;28.10;46.96
38900;BME280;24660;43.238;26.576;2022-07-10T09:41:23;98876.91;;;28.56;45.64
38900;BME280;24660;43.238;26.576;2022-07-10T09:43:53;98870.13;;;28.25;45.91
38900;BME280;24660;43.238;26.576;2022-07-10T09:46:21;98873.53;;;27.48;47.06
38900;BME280;24660;43.238;26.576;2022-07-10T09:48:47;98867.66;;;27.73;47.18
38900;BME280;24660;43.238;26.576;2022-07-10T09:51:12;98875.47;;;28.15;46.63
38900;BME280;24660;43.238;26.576;2022-07-10T09:53:41;98874.75;;;27.40;48.49
38900;BME280;24660;43.238;26.576;2022-07-10T09:56:07;98875.34;;;27.88;46.50
38900;BME280;24660;43.238;26.576;2022-07-10T09:58:34;98887.28;;;28.49;45.55
38900;BME280;24660;43.238;26.576;2022-07-10T10:01:01;98881.47;;;28.12;46.35
38900;BME280;24660;43.238;26.576;2022-07-10T10:03:31;98873.19;;;27.90;45.97
38900;BME280;24660;43.238;26.576;2022-07-10T10:06:01;98858.09;;;27.30;47.04
38900;BME280;24660;43.238;26.576;2022-07-10T10:08:28;98876.19;;;27.14;47.92
38900;BME280;24660;43.238;26.576;2022-07-10T10:10:55;98871.59;;;26.63;47.99
38900;BME280;24660;43.238;26.576;2022-07-10T10:13:25;98867.78;;;27.04;47.50
38900;BME280;24660;43.238;26.576;2022-07-10T10:15:53;98874.16;;;26.81;48.38
38900;BME280;24660;43.238;26.576;2022-07-10T10:18:19;98863.13;;;26.65;48.44
38900;BME280;24660;43.238;26.576;2022-07-10T10:20:46;98866.72;;;26.53;48.57
38900;BME280;24660;43.238;26.576;2022-07-10T10:23:13;98859.84;;;27.19;48.08
38900;BME280;24660;43.238;26.576;2022-07-10T10:25:40;98862.13;;;27.39;46.86
38900;BME280;24660;43.238;26.576;2022-07-10T10:28:06;98865.81;;;27.45;46.14
38900;BME280;24660;43.238;26.576;2022-07-10T10:30:33;98861.84;;;28.03;45.87
38900;BME280;24660;43.238;26.576;2022-07-10T10:33:00;98858.56;;;28.39;45.93
38900;BME280;24660;43.238;26.576;2022-07-10T10:35:41;98858.00;;;28.81;44.93
38900;BME280;24660;43.238;26.576;2022-07-10T10:38:06;98856.06;;;28.21;43.92
38900;BME280;24660;43.238;26.576;2022-07-10T10:40:32;98851.00;;;28.13;44.25
38900;BME280;24660;43.238;26.576;2022-07-10T10:42:58;98855.91;;;28.11;45.12
38900;BME280;24660;43.238;26.576;2022-07-10T10:45:25;98849.22;;;27.40;45.93
38900;BME280;24660;43.238;26.576;2022-07-10T10:48:00;98846.06;;;27.76;45.24
38900;BME280;24660;43.238;26.576;2022-07-10T10:53:15;98849.94;;;27.97;44.97
38900;BME280;24660;43.238;26.576;2022-07-10T10:55:41;98843.84;;;28.12;43.37
38900;BME280;24660;43.238;26.576;2022-07-10T10:58:26;98840.84;;;28.52;44.33
38900;BME280;24660;43.238;26.576;2022-07-10T11:01:02;98831.72;;;27.12;45.88
38900;BME280;24660;43.238;26.576;2022-07-10T11:03:27;98837.16;;;27.41;47.21
38900;BME280;24660;43.238;26.576;2022-07-10T11:05:53;98833.09;;;28.71;44.79
38900;BME280;24660;43.238;26.576;2022-07-10T11:10:58;98831.91;;;28.62;43.55
38900;BME280;24660;43.238;26.576;2022-07-10T11:13:24;98824.34;;;28.30;43.94
38900;BME280;24660;43.238;26.576;2022-07-10T11:15:52;98819.72;;;27.97;44.27
38900;BME280;24660;43.238;26.576;2022-07-10T11:18:19;98821.75;;;28.62;42.46
38900;BME280;24660;43.238;26.576;2022-07-10T11:20:47;98826.41;;;28.40;42.08
38900;BME280;24660;43.238;26.576;2022-07-10T11:25:59;98818.41;;;28.38;42.83
38900;BME280;24660;43.238;26.576;2022-07-10T11:31:13;98831.91;;;29.06;41.77
38900;BME280;24660;43.238;26.576;2022-07-10T11:33:39;98820.16;;;29.15;41.59
38900;BME280;24660;43.238;26.576;2022-07-10T11:36:08;98823.06;;;29.04;41.42
38900;BME280;24660;43.238;26.576;2022-07-10T11:38:34;98819.06;;;28.46;43.27
38900;BME280;24660;43.238;26.576;2022-07-10T11:41:00;98817.56;;;29.04;42.63
38900;BME280;24660;43.238;26.576;2022-07-10T11:43:26;98834.22;;;28.92;43.28
38900;BME280;24660;43.238;26.576;2022-07-10T11:45:52;98823.28;;;29.24;42.21
38900;BME280;24660;43.238;26.576;2022-07-10T11:48:24;98831.06;;;28.39;43.40
38900;BME280;24660;43.238;26.576;2022-07-10T11:50:49;98828.69;;;28.26;44.78
38900;BME280;24660;43.238;26.576;2022-07-10T11:55:55;98834.63;;;27.85;45.63
38900;BME280;24660;43.238;26.576;2022-07-10T11:58:21;98828.97;;;26.72;46.95
38900;BME280;24660;43.238;26.576;2022-07-10T12:03:30;98832.66;;;26.38;48.59
38900;BME280;24660;43.238;26.576;2022-07-10T12:06:00;98827.72;;;27.03;46.52
38900;BME280;24660;43.238;26.576;2022-07-10T12:08:26;98830.13;;;27.16;46.84
38900;BME280;24660;43.238;26.576;2022-07-10T12:10:51;98839.00;;;26.78;47.62
38900;BME280;24660;43.238;26.576;2022-07-10T12:13:17;98829.97;;;26.95;47.12
38900;BME280;24660;43.238;26.576;2022-07-10T12:15:43;98835.25;;;26.84;47.26
38900;BME280;24660;43.238;26.576;2022-07-10T12:18:14;98830.34;;;26.46;47.98
38900;BME280;24660;43.238;26.576;2022-07-10T12:20:40;98845.38;;;26.96;48.86
38900;BME280;24660;43.238;26.576;2022-07-10T12:23:10;98832.25;;;27.43;47.57
38900;BME280;24660;43.238;26.576;2022-07-10T12:25:36;98832.41;;;27.65;47.37
38900;BME280;24660;43.238;26.576;2022-07-10T12:28:01;98844.38;;;28.48;46.67
38900;BME280;24660;43.238;26.576;2022-07-10T12:33:09;98835.28;;;28.08;48.01
38900;BME280;24660;43.238;26.576;2022-07-10T12:35:56;98835.06;;;27.76;48.06
38900;BME280;24660;43.238;26.576;2022-07-10T12:38:21;98837.88;;;27.82;47.72
38900;BME280;24660;43.238;26.576;2022-07-10T12:40:47;98840.28;;;27.95;47.63
38900;BME280;24660;43.238;26.576;2022-07-10T12:43:12;98842.91;;;28.62;45.76
38900;BME280;24660;43.238;26.576;2022-07-10T12:46:07;98829.75;;;27.41;47.90
38900;BME280;24660;43.238;26.576;2022-07-10T12:48:32;98823.22;;;27.59;47.27
38900;BME280;24660;43.238;26.576;2022-07-10T12:51:18;98826.00;;;28.15;47.13
38900;BME280;24660;43.238;26.576;2022-07-10T12:53:46;98829.59;;;30.21;43.83
38900;BME280;24660;43.238;26.576;2022-07-10T12:56:25;98825.00;;;30.36;43.20
38900;BME280;24660;43.238;26.576;2022-07-10T12:58:51;98821.50;;;31.34;41.31
38900;BME280;24660;43.238;26.576;2022-07-10T13:01:17;98813.78;;;31.46;40.58
38900;BME280;24660;43.238;26.576;2022-07-10T13:03:42;98814.94;;;29.73;44.53
38900;BME280;24660;43.238;26.576;2022-07-10T13:06:24;98813.50;;;31.38;41.31
38900;BME280;24660;43.238;26.576;2022-07-10T13:08:50;98825.06;;;32.41;39.55
38900;BME280;24660;43.238;26.576;2022-07-10T13:11:15;98813.38;;;30.87;39.89